Time;durP1;ratioP1;P1;durP2;ratioP2;P2;SDS_P1;SDS_P2;PMS_P1;PMS_P2;Temp;Humidity;BMP_temperature;BMP_pressure;BME280_temperature;BME280_humidity;BME280_pressure;Samples;Min_cycle;Max_cycle;Signal;HPM_P1;HPM_P2
2022/01/02 00:07:09;;;;;;;4.28;2.88;;;;;;;21.57;nan;101181.50;20406823;28;101818;-60
2022/01/02 00:17:12;;;;;;;4.47;3.25;;;;;;;21.55;nan;101190.41;20411398;28;102654;-61
2022/01/02 00:27:14;;;;;;;4.77;3.13;;;;;;;21.54;nan;101184.28;20417710;28;98721;-61
2022/01/02 00:37:14;;;;;;;4.33;2.97;;;;;;;21.53;nan;101200.22;20426730;28;98292;-61
2022/01/02 00:47:31;;;;;;;6.32;3.10;;;;;;;21.50;nan;101205.69;20417805;28;101986;-61
2022/01/02 00:57:37;;;;;;;3.65;2.90;;;;;;;21.46;nan;101202.41;20415052;28;102009;-61
2022/01/02 01:07:38;;;;;;;4.05;3.10;;;;;;;21.46;nan;101198.91;20420731;28;101761;-61
2022/01/02 01:17:39;;;;;;;4.40;3.10;;;;;;;21.43;nan;101189.44;20421113;28;97806;-61
2022/01/02 01:27:41;;;;;;;4.70;3.20;;;;;;;21.41;nan;101181.63;20416645;28;97797;-61
2022/01/02 01:37:42;;;;;;;5.77;3.20;;;;;;;21.39;nan;101183.53;20425806;28;97902;-61
2022/01/02 01:47:44;;;;;;;4.70;3.97;;;;;;;21.37;nan;101180.16;20425250;28;100172;-61
2022/01/02 01:57:45;;;;;;;5.53;4.30;;;;;;;21.36;nan;101174.97;20413414;28;99157;-61
2022/01/02 02:07:46;;;;;;;7.05;5.05;;;;;;;21.33;nan;101173.38;20415244;28;99379;-61
2022/01/02 02:17:49;;;;;;;7.65;5.82;;;;;;;21.30;nan;101168.34;20416754;28;99194;-61
2022/01/02 02:28:05;;;;;;;8.17;6.60;;;;;;;21.32;nan;101162.97;20448118;28;100989;-61
2022/01/02 02:38:08;;;;;;;10.57;7.43;;;;;;;21.32;nan;101165.59;20411318;28;102128;-61
2022/01/02 02:49:00;;;;;;;;;;;;;;;21.31;nan;101143.66;20405970;28;100354;-61
2022/01/02 02:58:57;;;;;;;8.18;6.53;;;;;;;21.27;nan;101150.09;20427220;28;100986;-61
2022/01/02 03:09:05;;;;;;;;;;;;;;;21.28;nan;101154.41;20413526;28;100544;-61
2022/01/02 03:19:07;;;;;;;9.00;7.13;;;;;;;21.21;nan;101148.69;20462941;28;102162;-62
2022/01/02 03:29:08;;;;;;;10.47;7.90;;;;;;;21.20;nan;101135.63;20412043;28;97549;-61
2022/01/02 03:39:09;;;;;;;9.15;6.78;;;;;;;21.20;nan;101135.63;20416243;28;98545;-61
2022/01/02 03:49:11;;;;;;;9.50;6.97;;;;;;;21.18;nan;101127.84;20408798;28;101627;-61
2022/01/02 03:59:12;;;;;;;8.18;6.40;;;;;;;21.17;nan;101123.50;20404399;28;97919;-61
2022/01/02 04:09:13;;;;;;;9.15;6.47;;;;;;;21.16;nan;101113.09;20410583;28;102921;-61
2022/01/02 04:19:13;;;;;;;7.18;5.55;;;;;;;21.15;nan;101114.03;20412622;28;97832;-61
2022/01/02 04:29:14;;;;;;;7.75;6.20;;;;;;;21.11;nan;101139.72;20415309;28;97713;-61
2022/01/02 04:39:14;;;;;;;7.72;5.65;;;;;;;21.12;nan;101138.78;20416708;28;98716;-61
2022/01/02 04:49:15;;;;;;;8.25;5.55;;;;;;;21.08;nan;101137.25;20431005;28;98683;-61
2022/01/02 04:59:15;;;;;;;7.80;5.65;;;;;;;21.05;nan;101132.22;20404817;28;98184;-61
2022/01/02 05:09:22;;;;;;;6.50;5.55;;;;;;;21.03;nan;101124.41;20413139;28;99363;-61
2022/01/02 05:19:24;;;;;;;9.07;7.05;;;;;;;21.13;nan;101114.13;20415649;28;97297;-60
2022/01/02 05:29:25;;;;;;;7.83;6.87;;;;;;;21.24;nan;101124.78;20420823;28;100475;-62
2022/01/02 05:39:26;;;;;;;10.02;7.85;;;;;;;21.34;nan;101111.84;20417928;28;97671;-61
2022/01/02 05:49:26;;;;;;;10.25;7.68;;;;;;;21.41;nan;101114.91;20425561;28;98449;-61
2022/01/02 05:59:27;;;;;;;8.80;7.22;;;;;;;21.46;nan;101097.03;20421530;28;99161;-61
2022/01/02 06:09:28;;;;;;;9.75;7.32;;;;;;;21.50;nan;101100.31;20415216;28;100180;-61
2022/01/02 06:19:29;;;;;;;8.77;6.40;;;;;;;21.53;nan;101097.44;20418028;28;98340;-61
2022/01/02 06:29:30;;;;;;;7.38;6.03;;;;;;;21.56;nan;101095.47;20415268;28;98986;-61
2022/01/02 06:39:30;;;;;;;7.07;5.80;;;;;;;21.58;nan;101103.28;20411542;28;99201;-61
2022/01/02 06:49:32;;;;;;;8.38;5.90;;;;;;;21.61;nan;101103.06;20418423;28;102472;-61
2022/01/02 06:59:33;;;;;;;7.72;6.28;;;;;;;21.64;nan;101108.16;20393633;28;103067;-61
2022/01/02 07:09:34;;;;;;;11.70;6.63;;;;;;;21.69;nan;101115.72;20406396;28;99071;-61
2022/01/02 07:19:34;;;;;;;11.60;7.90;;;;;;;21.78;nan;101115.09;20408003;28;101288;-61
2022/01/02 07:29:35;;;;;;;11.38;7.93;;;;;;;21.86;nan;101122.47;20413942;28;100337;-63
2022/01/02 07:39:37;;;;;;;10.32;7.03;;;;;;;21.95;nan;101108.66;20420638;28;101312;-61
2022/01/02 07:49:37;;;;;;;15.17;8.53;;;;;;;22.03;nan;101102.84;20393098;28;103189;-61
2022/01/02 07:59:38;;;;;;;11.55;8.88;;;;;;;22.10;nan;101106.75;20415568;28;98290;-62
2022/01/02 08:09:38;;;;;;;14.77;8.43;;;;;;;21.89;nan;101088.84;20417015;28;98242;-61
2022/01/02 08:19:44;;;;;;;13.60;8.88;;;;;;;21.85;nan;101062.78;20398034;28;100553;-63
2022/01/02 08:29:47;;;;;;;13.27;8.32;;;;;;;21.76;nan;101074.81;20404105;28;97984;-63
2022/01/02 08:39:48;;;;;;;12.15;7.60;;;;;;;21.80;nan;101068.41;20387802;28;100967;-63
2022/01/02 08:49:49;;;;;;;14.63;7.28;;;;;;;21.78;nan;101053.66;20421152;28;98749;-63
2022/01/02 08:59:50;;;;;;;12.88;7.20;;;;;;;21.86;nan;101053.94;20432492;28;98250;-62
2022/01/02 09:09:52;;;;;;;14.95;9.57;;;;;;;21.90;nan;101044.88;20435653;28;97746;-62
2022/01/02 09:19:52;;;;;;;14.20;9.60;;;;;;;21.95;nan;101042.75;20428050;28;98616;-63
2022/01/02 09:29:53;;;;;;;11.05;7.75;;;;;;;22.01;nan;101044.94;20426525;28;98137;-63
2022/01/02 09:39:55;;;;;;;11.98;7.78;;;;;;;22.10;nan;101039.97;20422802;28;100162;-62
2022/01/02 09:49:57;;;;;;;11.93;8.18;;;;;;;22.14;nan;101007.16;20448200;28;99168;-62
2022/01/02 09:59:58;;;;;;;11.85;8.43;;;;;;;22.16;nan;100982.34;20428182;28;101860;-62
2022/01/02 10:10:08;;;;;;;12.38;7.97;;;;;;;22.23;nan;100974.84;20425091;27;102098;-62
2022/01/02 10:20:14;;;;;;;12.07;8.70;;;;;;;22.29;nan;100968.25;20432405;28;97669;-62
2022/01/02 10:30:19;;;;;;;12.57;8.63;;;;;;;22.32;nan;100952.22;20448044;28;99418;-63
2022/01/02 10:40:39;;;;;;;9.77;7.43;;;;;;;22.31;nan;100913.59;20429627;28;98046;-63
2022/01/02 10:50:58;;;;;;;10.10;7.85;;;;;;;22.32;nan;100892.38;20426739;28;102100;-63
2022/01/02 11:01:05;;;;;;;9.55;7.00;;;;;;;22.40;nan;100876.03;20418822;28;98440;-63
2022/01/02 11:11:06;;;;;;;9.18;6.90;;;;;;;22.45;nan;100865.09;20430102;28;99161;-62
2022/01/02 11:21:13;;;;;;;9.60;7.17;;;;;;;22.50;nan;100847.13;20430669;28;97373;-62
2022/01/02 11:31:40;;;;;;;8.27;6.32;;;;;;;22.58;nan;100836.00;20431792;28;100212;-63
2022/01/02 11:41:49;;;;;;;7.38;6.13;;;;;;;22.63;nan;100816.22;20428634;28;97702;-62
2022/01/02 11:52:10;;;;;;;8.15;6.18;;;;;;;22.70;nan;100800.72;20430248;28;97864;-62
2022/01/02 12:02:13;;;;;;;8.40;5.90;;;;;;;22.77;nan;100783.44;20427069;28;99418;-62
2022/01/02 12:12:13;;;;;;;7.28;5.53;;;;;;;22.81;nan;100776.13;20434734;28;98966;-62
2022/01/02 12:22:15;;;;;;;8.45;5.50;;;;;;;22.81;nan;100750.59;20440575;28;98057;-62
2022/01/02 12:32:21;;;;;;;7.00;5.57;;;;;;;22.85;nan;100725.63;20429024;28;98790;-62
2022/01/02 12:42:26;;;;;;;7.90;5.25;;;;;;;22.85;nan;100725.63;20439724;28;98093;-62
2022/01/02 12:52:26;;;;;;;6.57;4.53;;;;;;;22.81;nan;100724.19;20433223;28;97702;-62
2022/01/02 13:02:28;;;;;;;6.68;5.20;;;;;;;22.81;nan;100723.34;20435956;28;101394;-62
2022/01/02 13:12:33;;;;;;;7.03;4.80;;;;;;;22.80;nan;100709.31;20434721;28;98843;-63
2022/01/02 13:22:47;;;;;;;6.13;4.55;;;;;;;22.78;nan;100705.13;20430805;28;99350;-63
2022/01/02 13:32:47;;;;;;;5.10;4.40;;;;;;;22.72;nan;100693.22;20431625;28;102150;-63
2022/01/02 13:42:52;;;;;;;4.95;4.03;;;;;;;22.69;nan;100688.19;20426837;28;100805;-62
2022/01/02 13:52:55;;;;;;;5.75;4.15;;;;;;;22.63;nan;100662.28;20427939;28;97530;-63
2022/01/02 14:02:57;;;;;;;;;;;;;;;22.60;nan;100678.38;20428466;28;97877;-63
2022/01/02 14:12:57;;;;;;;6.15;4.03;;;;;;;22.51;nan;100664.94;20432620;28;100435;-63
2022/01/02 14:22:58;;;;;;;10.53;4.40;;;;;;;22.43;nan;100651.50;20422172;28;102687;-63
2022/01/02 14:32:58;;;;;;;20.77;4.50;;;;;;;22.37;nan;100638.75;20423282;28;97978;-63
2022/01/02 14:42:59;;;;;;;12.50;4.15;;;;;;;22.38;nan;100629.91;20405966;28;98250;-62
2022/01/02 14:53:00;;;;;;;9.73;3.75;;;;;;;22.38;nan;100636.00;20431345;28;100699;-62
2022/01/02 15:03:01;;;;;;;5.90;3.42;;;;;;;22.38;nan;100636.00;20411034;28;98089;-62
2022/01/02 15:13:03;;;;;;;6.22;3.45;;;;;;;22.36;nan;100640.56;20422833;28;98269;-62
2022/01/02 15:23:04;;;;;;;4.73;3.40;;;;;;;22.33;nan;100624.97;20418928;28;102208;-62
2022/01/02 15:33:05;;;;;;;7.10;3.42;;;;;;;22.30;nan;100619.09;20434801;28;98775;-62
2022/01/02 15:43:06;;;;;;;7.10;3.53;;;;;;;22.27;nan;100629.88;20409302;28;99281;-62
2022/01/02 15:53:07;;;;;;;6.32;3.30;;;;;;;22.22;nan;100611.78;20401831;28;98724;-63
2022/01/02 16:03:07;;;;;;;4.55;3.40;;;;;;;22.19;nan;100617.28;20400563;28;101351;-62
2022/01/02 16:13:09;;;;;;;7.50;4.40;;;;;;;22.15;nan;100589.47;20423599;28;107265;-62
2022/01/02 16:23:12;;;;;;;6.38;4.13;;;;;;;22.15;nan;100589.47;20444552;28;99147;-62
2022/01/02 16:33:13;;;;;;;;;;;;;;;22.16;nan;100585.88;20417234;28;98862;-62
2022/01/02 16:43:16;;;;;;;7.00;4.60;;;;;;;22.10;nan;100552.09;20441167;28;98429;-63
2022/01/02 16:53:17;;;;;;;10.80;5.35;;;;;;;22.07;nan;100551.38;20457271;28;98996;-63
2022/01/02 17:03:18;;;;;;;9.55;5.28;;;;;;;22.04;nan;100543.69;20419408;28;98770;-61
2022/01/02 17:13:18;;;;;;;9.10;5.80;;;;;;;22.04;nan;100572.69;20448869;27;97630;-61
2022/01/02 17:23:20;;;;;;;10.48;6.10;;;;;;;22.02;nan;100565.84;20436160;28;98212;-61
2022/01/02 17:33:27;;;;;;;11.23;5.57;;;;;;;22.03;nan;100575.44;20428773;28;97979;-62
2022/01/02 17:43:27;;;;;;;10.07;6.15;;;;;;;22.07;nan;100569.81;20429869;28;101342;-63
2022/01/02 17:53:28;;;;;;;9.82;5.70;;;;;;;22.10;nan;100516.00;20429152;28;99510;-62
2022/01/02 18:03:30;;;;;;;11.65;5.47;;;;;;;22.15;nan;100468.16;20423828;28;98081;-62
2022/01/02 18:13:31;;;;;;;11.20;5.05;;;;;;;22.20;nan;100468.63;20423988;28;99954;-62
2022/01/02 18:23:34;;;;;;;8.75;5.10;;;;;;;22.22;nan;100459.63;20426079;28;103580;-62
2022/01/02 18:33:35;;;;;;;;;;;;;;;22.27;nan;100506.75;20418332;28;98901;-61
2022/01/02 18:43:37;;;;;;;14.95;6.38;;;;;;;22.26;nan;100505.06;20422453;28;102182;-62
2022/01/02 18:53:37;;;;;;;19.35;6.35;;;;;;;22.36;nan;100481.41;20424715;28;99582;-62
2022/01/02 19:03:38;;;;;;;10.23;6.30;;;;;;;22.49;nan;100497.13;20413381;28;103995;-62
2022/01/02 19:13:38;;;;;;;12.77;8.05;;;;;;;22.54;nan;100516.91;20414657;28;98958;-63
2022/01/02 19:23:40;;;;;;;14.63;8.65;;;;;;;22.53;nan;100483.56;20408477;28;99971;-63
2022/01/02 19:33:41;;;;;;;17.47;9.30;;;;;;;22.44;nan;100465.00;20409891;28;98962;-61
2022/01/02 19:43:41;;;;;;;15.75;9.68;;;;;;;22.36;nan;100477.00;20399491;28;98418;-62
2022/01/02 19:53:42;;;;;;;20.23;9.55;;;;;;;22.27;nan;100439.97;20402853;28;101133;-62
2022/01/02 20:03:42;;;;;;;18.30;10.20;;;;;;;22.20;nan;100414.09;20400638;28;99551;-62
2022/01/02 20:13:43;;;;;;;21.15;11.32;;;;;;;22.19;nan;100430.03;20397802;28;98154;-61
2022/01/02 20:23:45;;;;;;;18.90;10.68;;;;;;;22.17;nan;100413.50;20414466;28;103695;-61
2022/01/02 20:33:49;;;;;;;19.50;10.77;;;;;;;22.13;nan;100419.97;20396705;28;98913;-61
2022/01/02 20:43:52;;;;;;;17.52;10.40;;;;;;;22.10;nan;100409.69;20399812;28;101910;-61
2022/01/02 20:53:52;;;;;;;16.50;10.63;;;;;;;22.06;nan;100401.19;20427591;28;98421;-61
2022/01/02 21:03:53;;;;;;;17.88;10.07;;;;;;;22.03;nan;100375.91;20420841;28;102141;-62
2022/01/02 21:13:53;;;;;;;15.35;9.98;;;;;;;22.01;nan;100377.81;20409335;28;101937;-62
2022/01/02 21:23:54;;;;;;;15.43;9.93;;;;;;;22.00;nan;100348.97;20404928;28;99119;-62
2022/01/02 21:33:54;;;;;;;14.38;10.13;;;;;;;21.97;nan;100338.66;20394853;28;101532;-62
2022/01/02 21:43:55;;;;;;;14.45;9.93;;;;;;;21.92;nan;100346.91;20394473;28;103547;-62
2022/01/02 21:53:57;;;;;;;13.10;9.32;;;;;;;21.88;nan;100345.50;20390189;28;98933;-62
2022/01/02 22:04:00;;;;;;;12.60;9.27;;;;;;;21.87;nan;100335.91;20410614;28;100551;-62
2022/01/02 22:14:02;;;;;;;14.38;9.52;;;;;;;21.83;nan;100308.97;20388875;28;102182;-62
2022/01/02 22:24:09;;;;;;;13.40;9.10;;;;;;;21.83;nan;100287.06;20386385;28;101880;-62
2022/01/02 22:34:09;;;;;;;13.93;9.27;;;;;;;21.80;nan;100301.34;20419085;28;100727;-62
2022/01/02 22:44:10;;;;;;;12.30;9.00;;;;;;;21.77;nan;100279.66;20401949;28;101648;-62
2022/01/02 22:54:14;;;;;;;10.27;8.38;;;;;;;;;;20399473;28;100890;-62
2022/01/02 23:04:15;;;;;;;11.00;8.13;;;;;;;21.72;nan;100274.75;20410949;28;101133;-62
2022/01/02 23:14:16;;;;;;;11.48;8.52;;;;;;;21.70;nan;100261.72;20385411;28;99453;-62
2022/01/02 23:24:21;;;;;;;11.45;8.23;;;;;;;21.68;nan;100276.81;20379840;28;99021;-62
2022/01/02 23:34:21;;;;;;;11.00;7.65;;;;;;;21.66;nan;100280.53;20384151;28;99400;-62
2022/01/02 23:44:22;;;;;;;10.20;7.57;;;;;;;21.64;nan;100261.38;20403582;28;99846;-63
2022/01/02 23:54:23;;;;;;;10.35;7.68;;;;;;;21.61;nan;100277.44;20376296;28;102080;-63
